Time;durP1;ratioP1;P1;durP2;ratioP2;P2;SDS_P1;SDS_P2;PMS_P1;PMS_P2;Temp;Humidity;BMP_temperature;BMP_pressure;BME280_temperature;BME280_humidity;BME280_pressure;Samples;Min_cycle;Max_cycle;Signal;HPM_P1;HPM_P2
2023/12/10 00:02:12;;;;;;;0.38;0.38;;;;;;;;;;5038482;28;20040;-80
2023/12/10 00:04:39;;;;;;;0.30;0.30;;;;;;;;;;5037587;28;20629;-81
2023/12/10 00:07:04;;;;;;;0.20;0.20;;;;;;;;;;5037175;28;20033;-81
2023/12/10 00:09:30;;;;;;;0.65;0.38;;;;;;;;;;5037880;28;20083;-79
2023/12/10 00:11:55;;;;;;;0.45;0.30;;;;;;;;;;5038330;28;20096;-79
2023/12/10 00:14:20;;;;;;;0.30;0.30;;;;;;;;;;5036939;28;20053;-81
2023/12/10 00:16:46;;;;;;;0.20;0.20;;;;;;;;;;5036967;28;20440;-80
2023/12/10 00:19:11;;;;;;;0.30;0.30;;;;;;;;;;5035593;28;20033;-81
2023/12/10 00:21:38;;;;;;;0.30;0.30;;;;;;;;;;5037595;28;20148;-80
2023/12/10 00:24:04;;;;;;;0.20;0.20;;;;;;;;;;5037487;28;20025;-79
2023/12/10 00:26:29;;;;;;;0.32;0.28;;;;;;;;;;5037641;28;20032;-81
2023/12/10 00:28:54;;;;;;;0.20;0.20;;;;;;;;;;5037053;28;20029;-81
2023/12/10 00:31:20;;;;;;;0.40;0.40;;;;;;;;;;5037374;28;20067;-80
2023/12/10 00:33:45;;;;;;;0.85;0.40;;;;;;;;;;5036972;28;20045;-80
2023/12/10 00:36:10;;;;;;;1.23;0.40;;;;;;;;;;5037254;28;20033;-80
2023/12/10 00:38:38;;;;;;;0.98;0.45;;;;;;;;;;5018107;28;20017;-81
2023/12/10 00:41:03;;;;;;;0.57;0.40;;;;;;;;;;5036506;28;20036;-80
2023/12/10 00:43:29;;;;;;;1.50;0.82;;;;;;;;;;5037118;28;20038;-81
2023/12/10 00:45:54;;;;;;;0.50;0.40;;;;;;;;;;5036423;28;20040;-80
2023/12/10 00:48:19;;;;;;;0.50;0.47;;;;;;;;;;5037752;28;20425;-81
2023/12/10 00:50:44;;;;;;;2.80;0.70;;;;;;;;;;5020034;28;20021;-78
2023/12/10 00:53:10;;;;;;;0.38;0.38;;;;;;;;;;5036300;28;20120;-80
2023/12/10 00:55:35;;;;;;;0.30;0.30;;;;;;;;;;5019517;28;20061;-80
2023/12/10 00:58:00;;;;;;;0.50;0.50;;;;;;;;;;5037071;28;20053;-80
2023/12/10 01:00:26;;;;;;;0.55;0.40;;;;;;;;;;5037175;28;20116;-80
2023/12/10 01:02:51;;;;;;;3.10;0.70;;;;;;;;;;5037418;28;20406;-78
2023/12/10 01:05:16;;;;;;;0.68;0.60;;;;;;;;;;5036613;28;20029;-80
2023/12/10 01:07:42;;;;;;;3.50;0.60;;;;;;;;;;5018325;28;20034;-79
2023/12/10 01:10:07;;;;;;;0.50;0.40;;;;;;;;;;5040034;28;20521;-79
2023/12/10 01:12:36;;;;;;;0.32;0.32;;;;;;;;;;5039751;28;20029;-80
2023/12/10 01:15:05;;;;;;;1.60;0.60;;;;;;;;;;5039204;28;20032;-79
2023/12/10 01:17:30;;;;;;;0.57;0.40;;;;;;;;;;5015030;28;20045;-79
2023/12/10 01:19:55;;;;;;;0.43;0.40;;;;;;;;;;5030764;28;20399;-79
2023/12/10 01:22:21;;;;;;;0.32;0.32;;;;;;;;;;5028928;28;20631;-79
2023/12/10 01:24:46;;;;;;;0.88;0.40;;;;;;;;;;5047803;28;20087;-79
2023/12/10 01:27:11;;;;;;;0.40;0.40;;;;;;;;;;5040892;28;20032;-78
2023/12/10 01:29:37;;;;;;;0.73;0.30;;;;;;;;;;5048305;28;20548;-79
2023/12/10 01:32:02;;;;;;;0.68;0.40;;;;;;;;;;5038672;28;20041;-79
2023/12/10 01:34:27;;;;;;;0.38;0.38;;;;;;;;;;5027550;28;20030;-79
2023/12/10 01:36:53;;;;;;;1.02;0.40;;;;;;;;;;5028970;28;20099;-79
2023/12/10 01:39:19;;;;;;;0.50;0.30;;;;;;;;;;5029022;28;20608;-79
2023/12/10 01:41:44;;;;;;;0.40;0.40;;;;;;;;;;5035617;28;20025;-79
2023/12/10 01:44:10;;;;;;;0.22;0.22;;;;;;;;;;5034678;28;20816;-79
2023/12/10 01:46:35;;;;;;;1.80;0.30;;;;;;;;;;5034041;28;20056;-79
2023/12/10 01:49:02;;;;;;;0.30;0.30;;;;;;;;;;5041499;28;20112;-78
2023/12/10 01:51:28;;;;;;;0.30;0.30;;;;;;;;;;5015522;28;20034;-79
2023/12/10 01:53:53;;;;;;;0.20;0.20;;;;;;;;;;5031175;28;20028;-78
2023/12/10 01:56:21;;;;;;;0.43;0.30;;;;;;;;;;5031910;28;20030;-78
2023/12/10 01:58:46;;;;;;;0.30;0.22;;;;;;;;;;5023903;28;20509;-78
2023/12/10 02:01:12;;;;;;;0.40;0.40;;;;;;;;;;5039520;28;20033;-79
2023/12/10 02:03:40;;;;;;;0.30;0.30;;;;;;;;;;5031923;28;20444;-78
2023/12/10 02:06:06;;;;;;;1.17;0.50;;;;;;;;;;5028527;28;20088;-78
2023/12/10 02:08:32;;;;;;;0.40;0.20;;;;;;;;;;5024911;28;20097;-78
2023/12/10 02:10:58;;;;;;;1.27;0.38;;;;;;;;;;5023949;28;20034;-78
2023/12/10 02:13:24;;;;;;;0.45;0.45;;;;;;;;;;5040554;28;20037;-78
2023/12/10 02:15:50;;;;;;;3.22;0.50;;;;;;;;;;5047848;28;20501;-78
2023/12/10 02:18:19;;;;;;;1.05;0.43;;;;;;;;;;5046430;28;20025;-78
2023/12/10 02:20:45;;;;;;;2.13;1.45;;;;;;;;;;5037984;28;20037;-78
2023/12/10 02:23:30;;;;;;;0.85;0.40;;;;;;;;;;5036997;28;20025;-77
2023/12/10 02:25:56;;;;;;;0.65;0.52;;;;;;;;;;5034171;28;20107;-77
2023/12/10 02:28:22;;;;;;;0.95;0.63;;;;;;;;;;5036691;28;20042;-77
2023/12/10 02:30:47;;;;;;;4.13;1.08;;;;;;;;;;5029330;28;20047;-77
2023/12/10 02:33:13;;;;;;;1.42;0.82;;;;;;;;;;5027432;28;20132;-78
2023/12/10 02:35:38;;;;;;;4.10;1.02;;;;;;;;;;5022154;28;20112;-77
2023/12/10 02:38:04;;;;;;;1.75;0.68;;;;;;;;;;5032359;28;20037;-78
2023/12/10 02:40:30;;;;;;;4.38;0.63;;;;;;;;;;5028778;28;20088;-78
2023/12/10 02:42:55;;;;;;;4.20;1.17;;;;;;;;;;5031949;28;20343;-77
2023/12/10 02:45:20;;;;;;;2.30;0.88;;;;;;;;;;5040217;28;20067;-79
2023/12/10 02:47:45;;;;;;;3.00;0.90;;;;;;;;;;5024702;28;20029;-79
2023/12/10 02:50:11;;;;;;;0.55;0.50;;;;;;;;;;5019315;28;20578;-77
2023/12/10 02:52:37;;;;;;;2.22;1.00;;;;;;;;;;5031094;28;20600;-78
2023/12/10 02:55:06;;;;;;;2.05;0.50;;;;;;;;;;5026165;28;20087;-78
2023/12/10 02:57:31;;;;;;;2.03;0.50;;;;;;;;;;5039144;28;20108;-78
2023/12/10 02:59:57;;;;;;;1.23;0.65;;;;;;;;;;5038502;28;20159;-77
2023/12/10 03:02:22;;;;;;;0.68;0.50;;;;;;;;;;5032408;28;20041;-78
2023/12/10 03:04:47;;;;;;;0.40;0.40;;;;;;;;;;5046426;28;20037;-78
2023/12/10 03:07:13;;;;;;;0.63;0.35;;;;;;;;;;5027520;28;20042;-78
2023/12/10 03:09:38;;;;;;;2.35;0.35;;;;;;;;;;5026593;28;20067;-78
2023/12/10 03:12:04;;;;;;;2.45;0.50;;;;;;;;;;5034547;28;20028;-76
2023/12/10 03:14:30;;;;;;;0.60;0.40;;;;;;;;;;5036402;28;20045;-77
2023/12/10 03:16:56;;;;;;;1.98;0.35;;;;;;;;;;5035937;28;20072;-77
2023/12/10 03:19:21;;;;;;;1.45;0.47;;;;;;;;;;5033109;28;20037;-78
2023/12/10 03:21:46;;;;;;;2.35;0.52;;;;;;;;;;5042088;28;20037;-77
2023/12/10 03:24:11;;;;;;;1.48;0.47;;;;;;;;;;5034179;28;20088;-78
2023/12/10 03:26:37;;;;;;;1.40;0.40;;;;;;;;;;5039829;28;20025;-77
2023/12/10 03:29:02;;;;;;;6.00;1.00;;;;;;;;;;5045238;28;20037;-77
2023/12/10 03:31:27;;;;;;;1.27;0.45;;;;;;;;;;5029651;28;20034;-78
2023/12/10 03:33:52;;;;;;;1.17;0.52;;;;;;;;;;5028947;28;20055;-77
2023/12/10 03:36:18;;;;;;;2.80;0.65;;;;;;;;;;5037007;28;20025;-78
2023/12/10 03:38:43;;;;;;;1.33;0.60;;;;;;;;;;5015227;28;20030;-77
2023/12/10 03:41:08;;;;;;;2.67;1.17;;;;;;;;;;5030189;28;20060;-77
2023/12/10 03:43:34;;;;;;;3.97;0.80;;;;;;;;;;5037621;28;20041;-78
2023/12/10 03:45:59;;;;;;;4.90;0.93;;;;;;;;;;5037189;28;20092;-77
2023/12/10 03:48:24;;;;;;;9.15;1.20;;;;;;;;;;5030755;28;20033;-77
2023/12/10 03:50:51;;;;;;;2.85;0.82;;;;;;;;;;5045133;28;20459;-74
2023/12/10 03:53:16;;;;;;;8.05;0.88;;;;;;;;;;5030212;28;20025;-76
2023/12/10 03:55:42;;;;;;;8.02;1.02;;;;;;;;;;5038154;28;20501;-76
2023/12/10 03:58:07;;;;;;;2.17;0.95;;;;;;;;;;5012311;28;20026;-76
2023/12/10 04:00:32;;;;;;;7.55;0.85;;;;;;;;;;5045605;28;20040;-76
2023/12/10 04:02:57;;;;;;;3.75;1.45;;;;;;;;;;5031073;28;20027;-76
2023/12/10 04:05:23;;;;;;;7.22;1.05;;;;;;;;;;5038641;28;20065;-76
2023/12/10 04:07:48;;;;;;;2.95;1.05;;;;;;;;;;5019063;28;20700;-76
2023/12/10 04:10:14;;;;;;;11.40;1.98;;;;;;;;;;5040606;28;20063;-76
2023/12/10 04:12:40;;;;;;;12.80;1.70;;;;;;;;;;5041831;28;20091;-76
2023/12/10 04:15:05;;;;;;;4.43;1.00;;;;;;;;;;5043465;28;20037;-76
2023/12/10 04:17:30;;;;;;;10.40;1.58;;;;;;;;;;5044272;28;20025;-76
2023/12/10 04:19:56;;;;;;;1.30;1.10;;;;;;;;;;5035647;28;20037;-76
2023/12/10 04:22:21;;;;;;;7.15;1.40;;;;;;;;;;5036763;28;20033;-76
2023/12/10 04:24:46;;;;;;;16.77;1.98;;;;;;;;;;5030258;28;20047;-76
2023/12/10 04:27:11;;;;;;;7.53;1.67;;;;;;;;;;5044184;28;20024;-76
2023/12/10 04:29:37;;;;;;;15.60;1.90;;;;;;;;;;5030657;28;20060;-75
2023/12/10 04:32:02;;;;;;;13.20;1.35;;;;;;;;;;5029298;28;20080;-76
2023/12/10 04:34:27;;;;;;;9.52;2.15;;;;;;;;;;5034289;28;20037;-76
2023/12/10 04:36:53;;;;;;;11.00;2.22;;;;;;;;;;5033572;28;20041;-76
2023/12/10 04:39:19;;;;;;;12.52;2.60;;;;;;;;;;5034157;28;20508;-75
2023/12/10 04:41:44;;;;;;;12.40;1.75;;;;;;;;;;5005860;28;20044;-76
2023/12/10 04:44:09;;;;;;;12.38;2.47;;;;;;;;;;5040312;28;20029;-76
2023/12/10 04:46:35;;;;;;;16.80;2.35;;;;;;;;;;5035974;28;20034;-76
2023/12/10 04:49:00;;;;;;;8.35;1.50;;;;;;;;;;5039745;28;20046;-76
2023/12/10 04:51:25;;;;;;;10.25;1.83;;;;;;;;;;5039425;28;20044;-76
2023/12/10 04:53:50;;;;;;;12.88;1.80;;;;;;;;;;5035721;28;20104;-75
2023/12/10 04:56:17;;;;;;;12.13;2.10;;;;;;;;;;5029843;28;20038;-75
2023/12/10 04:58:42;;;;;;;9.63;1.52;;;;;;;;;;5040670;28;20025;-76
2023/12/10 05:01:07;;;;;;;7.03;1.88;;;;;;;;;;5033085;28;20130;-75
2023/12/10 05:03:33;;;;;;;7.47;1.60;;;;;;;;;;5044691;28;20049;-75
2023/12/10 05:05:58;;;;;;;7.60;1.40;;;;;;;;;;5030517;28;20030;-76
2023/12/10 05:08:23;;;;;;;8.43;1.58;;;;;;;;;;5031263;28;20502;-77
2023/12/10 05:10:48;;;;;;;12.38;1.75;;;;;;;;;;5028250;28;20107;-75
2023/12/10 05:13:14;;;;;;;6.13;1.38;;;;;;;;;;5043499;28;20446;-76
2023/12/10 05:15:39;;;;;;;6.13;1.67;;;;;;;;;;5032523;28;20033;-76
2023/12/10 05:18:04;;;;;;;14.30;2.05;;;;;;;;;;5045194;28;20112;-75
2023/12/10 05:20:30;;;;;;;5.28;1.60;;;;;;;;;;5039044;28;20389;-76
2023/12/10 05:22:56;;;;;;;21.63;2.25;;;;;;;;;;5046112;28;20037;-75
2023/12/10 05:25:22;;;;;;;7.88;2.05;;;;;;;;;;5026409;28;20030;-76
2023/12/10 05:27:47;;;;;;;14.00;2.63;;;;;;;;;;5027038;28;20550;-76
2023/12/10 05:30:12;;;;;;;6.95;2.15;;;;;;;;;;5039764;28;20024;-76
2023/12/10 05:32:38;;;;;;;12.18;1.60;;;;;;;;;;5028368;28;20018;-75
2023/12/10 05:35:04;;;;;;;6.53;1.70;;;;;;;;;;5024700;28;20045;-76
2023/12/10 05:37:30;;;;;;;10.85;1.92;;;;;;;;;;5032878;28;20183;-76
2023/12/10 05:39:55;;;;;;;4.90;1.25;;;;;;;;;;5017065;28;20120;-76
2023/12/10 05:42:21;;;;;;;6.40;1.38;;;;;;;;;;5034297;28;20032;-76
2023/12/10 05:44:48;;;;;;;11.73;1.73;;;;;;;;;;5042839;28;20119;-75
2023/12/10 05:47:13;;;;;;;10.63;2.72;;;;;;;;;;5028910;28;20151;-76
2023/12/10 05:49:38;;;;;;;12.18;1.85;;;;;;;;;;5042167;28;20176;-76
2023/12/10 05:52:04;;;;;;;9.60;2.22;;;;;;;;;;5039046;28;20041;-76
2023/12/10 05:54:30;;;;;;;9.07;1.55;;;;;;;;;;5038958;28;20040;-76
2023/12/10 05:56:55;;;;;;;5.75;1.25;;;;;;;;;;5038579;28;20100;-76
2023/12/10 05:59:21;;;;;;;10.00;1.95;;;;;;;;;;5027502;28;20434;-76
2023/12/10 06:01:46;;;;;;;15.82;2.13;;;;;;;;;;5030961;28;20405;-76
2023/12/10 06:04:11;;;;;;;8.82;1.83;;;;;;;;;;5015046;28;20452;-75
2023/12/10 06:06:37;;;;;;;3.65;1.20;;;;;;;;;;5030838;28;20057;-75
2023/12/10 06:09:02;;;;;;;7.63;1.30;;;;;;;;;;5044752;28;20393;-75
2023/12/10 06:11:27;;;;;;;6.53;1.55;;;;;;;;;;5034653;28;20437;-76
2023/12/10 06:13:53;;;;;;;6.53;1.13;;;;;;;;;;5025367;28;20502;-76
2023/12/10 06:16:18;;;;;;;4.95;1.05;;;;;;;;;;5035162;28;20402;-76
2023/12/10 06:18:43;;;;;;;6.32;1.60;;;;;;;;;;5046092;28;20036;-75
2023/12/10 06:21:08;;;;;;;8.18;1.70;;;;;;;;;;5040852;28;20052;-75
2023/12/10 06:23:34;;;;;;;11.93;2.40;;;;;;;;;;5038603;28;20044;-75
2023/12/10 06:25:59;;;;;;;8.15;1.92;;;;;;;;;;5016595;28;20110;-75
2023/12/10 06:28:24;;;;;;;7.15;1.70;;;;;;;;;;5041022;28;20040;-75
2023/12/10 06:30:50;;;;;;;8.77;2.10;;;;;;;;;;5038145;28;20094;-75
2023/12/10 06:33:15;;;;;;;12.45;2.15;;;;;;;;;;5032425;28;20112;-75
2023/12/10 06:35:40;;;;;;;7.63;1.70;;;;;;;;;;5039950;28;20482;-75
2023/12/10 06:38:05;;;;;;;10.80;1.77;;;;;;;;;;5039137;28;20044;-75
2023/12/10 06:40:31;;;;;;;10.48;1.45;;;;;;;;;;5044095;28;20025;-75
2023/12/10 06:42:56;;;;;;;4.38;1.55;;;;;;;;;;5038248;28;20034;-75
2023/12/10 06:45:21;;;;;;;7.55;1.48;;;;;;;;;;5038514;28;20017;-74
2023/12/10 06:47:46;;;;;;;7.75;1.63;;;;;;;;;;5015800;28;20108;-75
2023/12/10 06:50:12;;;;;;;8.93;1.60;;;;;;;;;;5032198;28;20033;-76
2023/12/10 06:52:37;;;;;;;15.85;2.72;;;;;;;;;;5037509;28;20031;-75
2023/12/10 06:55:03;;;;;;;8.18;1.52;;;;;;;;;;5020518;28;20045;-75
2023/12/10 06:57:28;;;;;;;7.30;1.83;;;;;;;;;;5018689;28;20406;-75
2023/12/10 06:59:53;;;;;;;11.70;1.90;;;;;;;;;;5026634;28;20052;-75
2023/12/10 07:02:18;;;;;;;9.23;1.70;;;;;;;;;;5029414;28;20125;-74
2023/12/10 07:04:44;;;;;;;8.13;1.70;;;;;;;;;;5028771;28;20441;-75
2023/12/10 07:07:09;;;;;;;22.80;3.88;;;;;;;;;;5037371;28;20117;-75
2023/12/10 07:09:35;;;;;;;9.73;2.28;;;;;;;;;;5044008;28;20036;-74
2023/12/10 07:12:01;;;;;;;7.63;1.48;;;;;;;;;;5028249;28;20143;-75
2023/12/10 07:14:26;;;;;;;9.10;1.45;;;;;;;;;;5044225;28;20065;-74
2023/12/10 07:16:52;;;;;;;4.05;1.45;;;;;;;;;;5038645;28;20061;-76
2023/12/10 07:19:17;;;;;;;8.73;2.05;;;;;;;;;;5032167;28;20538;-77
2023/12/10 07:21:42;;;;;;;15.38;2.03;;;;;;;;;;5036814;28;20597;-76
2023/12/10 07:24:08;;;;;;;14.32;2.00;;;;;;;;;;5041637;28;20166;-77
2023/12/10 07:26:33;;;;;;;5.40;1.35;;;;;;;;;;5047756;28;20029;-77
2023/12/10 07:28:58;;;;;;;9.38;1.48;;;;;;;;;;5041327;28;20071;-76
2023/12/10 07:31:24;;;;;;;9.43;1.55;;;;;;;;;;5038142;28;20033;-75
2023/12/10 07:33:49;;;;;;;10.07;1.63;;;;;;;;;;5042148;28;20556;-75
2023/12/10 07:36:15;;;;;;;11.95;1.67;;;;;;;;;;5050334;28;20069;-75
2023/12/10 07:38:40;;;;;;;10.90;1.58;;;;;;;;;;5046038;28;20017;-76
2023/12/10 07:41:06;;;;;;;4.07;0.98;;;;;;;;;;5037988;28;20037;-77
2023/12/10 07:43:31;;;;;;;9.90;1.55;;;;;;;;;;5021234;28;20021;-76
2023/12/10 07:45:56;;;;;;;10.25;1.98;;;;;;;;;;5050093;28;20544;-76
2023/12/10 07:48:22;;;;;;;2.75;0.90;;;;;;;;;;5043275;28;20031;-76
2023/12/10 07:50:47;;;;;;;7.55;1.42;;;;;;;;;;5041660;28;20039;-76
2023/12/10 07:53:12;;;;;;;11.85;2.22;;;;;;;;;;5042249;28;20037;-77
2023/12/10 07:55:38;;;;;;;16.23;2.15;;;;;;;;;;5046007;28;20033;-76
2023/12/10 07:58:03;;;;;;;4.18;1.55;;;;;;;;;;5033166;28;20029;-76
2023/12/10 08:00:29;;;;;;;7.55;1.13;;;;;;;;;;5038682;28;20379;-78
2023/12/10 08:02:54;;;;;;;5.05;1.23;;;;;;;;;;5034869;28;20422;-76
2023/12/10 08:05:20;;;;;;;1.38;1.10;;;;;;;;;;5045380;28;20025;-76
2023/12/10 08:07:45;;;;;;;5.93;1.83;;;;;;;;;;5043068;28;20041;-76
2023/12/10 08:10:10;;;;;;;4.50;1.17;;;;;;;;;;5034447;28;20040;-75
2023/12/10 08:12:36;;;;;;;10.48;0.90;;;;;;;;;;5040214;28;20033;-75
2023/12/10 08:15:01;;;;;;;7.13;1.95;;;;;;;;;;5022003;28;20196;-77
2023/12/10 08:17:26;;;;;;;11.27;2.08;;;;;;;;;;5038869;28;20178;-76
2023/12/10 08:19:52;;;;;;;7.72;1.70;;;;;;;;;;5029494;28;20045;-76
2023/12/10 08:22:17;;;;;;;15.18;2.45;;;;;;;;;;5038060;28;20044;-75
2023/12/10 08:24:43;;;;;;;3.15;1.05;;;;;;;;;;5039124;28;20082;-75
2023/12/10 08:27:08;;;;;;;6.20;1.35;;;;;;;;;;5042475;28;20029;-77
2023/12/10 08:29:34;;;;;;;9.05;1.65;;;;;;;;;;5036735;28;20109;-77
2023/12/10 08:31:59;;;;;;;7.65;1.60;;;;;;;;;;5041169;28;20052;-76
2023/12/10 08:34:24;;;;;;;4.10;1.50;;;;;;;;;;5037742;28;20814;-76
2023/12/10 08:36:49;;;;;;;5.93;1.77;;;;;;;;;;5038494;28;20037;-75
2023/12/10 08:39:15;;;;;;;7.40;1.52;;;;;;;;;;5041367;28;20025;-75
2023/12/10 08:41:40;;;;;;;4.82;1.73;;;;;;;;;;5023123;28;20383;-76
2023/12/10 08:44:06;;;;;;;10.55;1.63;;;;;;;;;;5039285;28;20069;-76
2023/12/10 08:46:31;;;;;;;3.50;1.55;;;;;;;;;;5046265;28;20021;-76
2023/12/10 08:48:57;;;;;;;12.60;2.03;;;;;;;;;;5030108;28;20037;-76
2023/12/10 08:51:22;;;;;;;6.90;1.35;;;;;;;;;;5045351;28;20080;-75
2023/12/10 08:53:48;;;;;;;4.22;1.10;;;;;;;;;;5033274;28;20501;-77
2023/12/10 08:56:13;;;;;;;7.57;1.45;;;;;;;;;;5043101;28;20037;-76
2023/12/10 08:58:38;;;;;;;9.55;1.48;;;;;;;;;;5032065;28;20033;-78
2023/12/10 09:01:05;;;;;;;9.07;1.85;;;;;;;;;;5025259;28;20679;-75
2023/12/10 09:03:30;;;;;;;9.73;1.95;;;;;;;;;;5030010;28;20049;-76
2023/12/10 09:05:57;;;;;;;7.95;1.70;;;;;;;;;;5044146;28;20108;-77
2023/12/10 09:08:22;;;;;;;8.88;1.85;;;;;;;;;;5042488;28;20033;-76
2023/12/10 09:10:48;;;;;;;3.70;1.33;;;;;;;;;;5038398;28;20037;-76
2023/12/10 09:13:13;;;;;;;2.85;1.20;;;;;;;;;;5038448;28;20127;-76
2023/12/10 09:15:38;;;;;;;8.52;2.13;;;;;;;;;;5039870;28;20042;-76
2023/12/10 09:18:04;;;;;;;6.35;1.00;;;;;;;;;;5029052;28;20025;-76
2023/12/10 09:20:29;;;;;;;6.32;1.25;;;;;;;;;;5043475;28;20020;-75
2023/12/10 09:22:54;;;;;;;7.40;1.58;;;;;;;;;;5026879;28;20041;-76
2023/12/10 09:25:20;;;;;;;4.47;1.45;;;;;;;;;;5037356;28;20037;-75
2023/12/10 09:27:45;;;;;;;2.92;1.60;;;;;;;;;;5042267;28;20045;-76
2023/12/10 09:30:10;;;;;;;3.05;1.10;;;;;;;;;;5033627;28;20040;-76
2023/12/10 09:32:36;;;;;;;6.25;1.63;;;;;;;;;;5038332;28;20028;-75
2023/12/10 09:35:04;;;;;;;8.98;1.80;;;;;;;;;;5040656;28;20155;-78
2023/12/10 09:37:29;;;;;;;7.75;2.67;;;;;;;;;;5035662;28;20064;-78
2023/12/10 09:39:54;;;;;;;4.70;1.85;;;;;;;;;;5020418;28;20437;-77
2023/12/10 09:42:20;;;;;;;9.23;1.70;;;;;;;;;;5031090;28;20029;-77
2023/12/10 09:44:45;;;;;;;7.85;2.05;;;;;;;;;;5032585;28;20408;-78
2023/12/10 09:47:11;;;;;;;5.63;1.83;;;;;;;;;;5045450;28;20055;-74
2023/12/10 09:49:38;;;;;;;14.25;2.28;;;;;;;;;;5036675;28;20446;-75
2023/12/10 09:52:05;;;;;;;5.85;1.50;;;;;;;;;;5042801;28;20041;-75
2023/12/10 09:54:31;;;;;;;11.18;1.40;;;;;;;;;;5040847;28;20035;-75
2023/12/10 09:56:56;;;;;;;15.65;1.92;;;;;;;;;;5048162;28;20025;-75
2023/12/10 09:59:21;;;;;;;7.00;1.30;;;;;;;;;;5031340;28;20103;-74
2023/12/10 10:01:52;;;;;;;7.85;1.55;;;;;;;;;;5048373;28;20021;-75
2023/12/10 10:04:17;;;;;;;6.45;2.13;;;;;;;;;;5044283;28;20047;-75
2023/12/10 10:06:43;;;;;;;5.72;1.30;;;;;;;;;;5047662;28;20030;-77
2023/12/10 10:09:08;;;;;;;7.43;1.88;;;;;;;;;;5041668;28;20029;-77
2023/12/10 10:11:33;;;;;;;5.25;1.48;;;;;;;;;;5047824;28;20482;-77
2023/12/10 10:13:59;;;;;;;4.63;1.40;;;;;;;;;;5042322;28;20044;-74
2023/12/10 10:16:25;;;;;;;4.72;1.20;;;;;;;;;;5046929;28;20032;-74
2023/12/10 10:18:50;;;;;;;4.40;1.52;;;;;;;;;;5046411;28;20033;-74
2023/12/10 10:21:15;;;;;;;8.07;1.27;;;;;;;;;;5047984;28;20029;-75
2023/12/10 10:23:42;;;;;;;6.13;1.38;;;;;;;;;;5041930;28;20541;-75
2023/12/10 10:26:07;;;;;;;4.80;1.35;;;;;;;;;;5049766;28;20079;-77
2023/12/10 10:28:35;;;;;;;9.77;1.60;;;;;;;;;;5027663;28;20037;-75
2023/12/10 10:31:01;;;;;;;10.40;1.85;;;;;;;;;;5051483;28;20439;-75
2023/12/10 10:33:26;;;;;;;5.28;1.25;;;;;;;;;;5023102;28;20030;-75
2023/12/10 10:35:55;;;;;;;5.97;1.27;;;;;;;;;;5048289;28;20477;-75
2023/12/10 10:38:23;;;;;;;4.13;1.10;;;;;;;;;;5047617;28;20029;-75
2023/12/10 10:40:49;;;;;;;2.80;1.25;;;;;;;;;;5048482;28;20033;-75
2023/12/10 10:43:15;;;;;;;8.48;1.73;;;;;;;;;;5047196;28;20048;-75
2023/12/10 10:45:41;;;;;;;4.75;2.47;;;;;;;;;;5028095;28;20351;-76
2023/12/10 10:48:06;;;;;;;4.35;1.42;;;;;;;;;;5043799;28;20027;-77
2023/12/10 10:50:35;;;;;;;11.10;1.40;;;;;;;;;;5050100;28;20163;-77
2023/12/10 10:53:01;;;;;;;3.05;0.90;;;;;;;;;;5042842;28;20037;-75
2023/12/10 10:55:27;;;;;;;4.32;1.30;;;;;;;;;;5045377;28;20029;-75
2023/12/10 10:57:53;;;;;;;4.03;1.73;;;;;;;;;;5049711;28;20037;-75
2023/12/10 11:00:20;;;;;;;11.63;1.95;;;;;;;;;;5031657;28;20036;-75
2023/12/10 11:02:46;;;;;;;7.63;1.50;;;;;;;;;;5050031;28;20021;-77
2023/12/10 11:05:21;;;;;;;4.95;1.38;;;;;;;;;;5044832;28;20041;-77
2023/12/10 11:07:48;;;;;;;6.97;1.52;;;;;;;;;;5039912;28;20139;-75
2023/12/10 11:10:13;;;;;;;5.30;1.58;;;;;;;;;;5039798;28;20217;-75
2023/12/10 11:12:49;;;;;;;9.30;2.35;;;;;;;;;;5031185;28;20478;-74
2023/12/10 11:15:16;;;;;;;8.07;1.50;;;;;;;;;;5045016;28;20032;-77
2023/12/10 11:17:54;;;;;;;5.63;1.75;;;;;;;;;;5048142;28;20032;-77
2023/12/10 11:20:39;;;;;;;5.03;1.55;;;;;;;;;;5046673;28;20029;-75
2023/12/10 11:23:06;;;;;;;5.88;1.42;;;;;;;;;;5037255;28;20413;-75
2023/12/10 11:25:32;;;;;;;4.43;1.55;;;;;;;;;;5045241;28;20493;-75
2023/12/10 11:27:58;;;;;;;7.43;1.63;;;;;;;;;;5044399;28;20140;-75
2023/12/10 11:30:25;;;;;;;8.38;1.85;;;;;;;;;;5046843;28;20408;-75
2023/12/10 11:32:50;;;;;;;5.25;1.45;;;;;;;;;;5046892;28;20025;-75
2023/12/10 11:35:16;;;;;;;5.63;1.60;;;;;;;;;;5042792;28;20322;-75
2023/12/10 11:37:42;;;;;;;4.03;1.30;;;;;;;;;;5028799;28;20544;-75
2023/12/10 11:40:08;;;;;;;7.95;1.73;;;;;;;;;;5032051;28;20025;-77
2023/12/10 11:42:34;;;;;;;3.55;1.05;;;;;;;;;;5047210;28;20033;-78
2023/12/10 11:44:59;;;;;;;5.47;1.50;;;;;;;;;;5048815;28;20025;-78
2023/12/10 11:47:24;;;;;;;5.53;1.83;;;;;;;;;;5045788;28;20505;-75
2023/12/10 11:49:50;;;;;;;5.82;1.00;;;;;;;;;;5049408;28;20078;-78
2023/12/10 11:52:15;;;;;;;6.70;1.58;;;;;;;;;;5048102;28;20112;-75
2023/12/10 11:54:41;;;;;;;3.53;1.25;;;;;;;;;;5047174;28;20124;-75
2023/12/10 11:57:06;;;;;;;7.22;1.38;;;;;;;;;;5042404;28;20055;-75
2023/12/10 11:59:31;;;;;;;8.27;1.60;;;;;;;;;;5049411;28;20028;-76
2023/12/10 12:01:57;;;;;;;4.90;1.50;;;;;;;;;;5049283;28;20040;-78
2023/12/10 12:04:27;;;;;;;5.47;1.60;;;;;;;;;;5048254;28;20029;-76
2023/12/10 12:06:52;;;;;;;4.70;1.95;;;;;;;;;;5045749;28;20393;-76
2023/12/10 12:09:19;;;;;;;8.93;1.63;;;;;;;;;;5043238;28;20033;-79
2023/12/10 12:11:44;;;;;;;6.90;2.15;;;;;;;;;;5049374;28;20108;-78
2023/12/10 12:14:16;;;;;;;6.47;1.50;;;;;;;;;;5049273;28;20033;-78
2023/12/10 12:16:42;;;;;;;8.38;1.85;;;;;;;;;;5048145;28;20025;-78
2023/12/10 12:19:08;;;;;;;6.25;1.73;;;;;;;;;;5042833;28;20037;-78
2023/12/10 12:21:33;;;;;;;2.85;1.13;;;;;;;;;;5048405;28;20025;-79
2023/12/10 12:23:58;;;;;;;5.93;1.80;;;;;;;;;;5049544;28;20439;-76
2023/12/10 12:26:24;;;;;;;3.53;1.27;;;;;;;;;;5049237;28;20029;-78
2023/12/10 12:28:49;;;;;;;5.50;1.23;;;;;;;;;;5046435;28;20047;-79
2023/12/10 12:31:14;;;;;;;6.55;1.25;;;;;;;;;;5049023;28;20028;-78
2023/12/10 12:33:39;;;;;;;7.05;1.23;;;;;;;;;;5048328;28;20110;-78
2023/12/10 12:36:05;;;;;;;5.70;1.38;;;;;;;;;;5045909;28;20503;-78
2023/12/10 12:38:30;;;;;;;6.05;1.48;;;;;;;;;;5024828;28;20369;-79
2023/12/10 12:40:56;;;;;;;2.80;0.98;;;;;;;;;;5037087;28;20040;-79
2023/12/10 12:43:22;;;;;;;2.88;1.20;;;;;;;;;;5042885;28;20332;-79
2023/12/10 12:45:47;;;;;;;6.03;1.40;;;;;;;;;;5031374;28;20047;-79
2023/12/10 12:48:12;;;;;;;3.42;1.05;;;;;;;;;;5027242;28;20056;-79
2023/12/10 12:50:37;;;;;;;5.13;1.13;;;;;;;;;;5033499;28;20036;-78
2023/12/10 12:53:03;;;;;;;6.70;1.52;;;;;;;;;;5033794;28;20497;-79
2023/12/10 12:55:28;;;;;;;4.07;1.10;;;;;;;;;;5038674;28;20036;-79
2023/12/10 12:57:53;;;;;;;3.65;1.13;;;;;;;;;;5038233;28;20124;-79
2023/12/10 13:00:18;;;;;;;2.05;1.42;;;;;;;;;;5030574;28;20389;-79
2023/12/10 13:02:44;;;;;;;5.50;1.30;;;;;;;;;;5040556;28;20037;-79
2023/12/10 13:05:10;;;;;;;2.30;1.08;;;;;;;;;;5041730;28;20520;-79
2023/12/10 13:07:35;;;;;;;7.47;1.38;;;;;;;;;;5031317;28;20030;-79
2023/12/10 13:10:01;;;;;;;7.72;2.03;;;;;;;;;;5029873;28;20059;-79
2023/12/10 13:12:26;;;;;;;4.43;1.05;;;;;;;;;;5038099;28;20150;-79
2023/12/10 13:17:18;;;;;;;3.47;1.23;;;;;;;;;;5036642;23;20046;-81
2023/12/10 13:19:44;;;;;;;5.45;1.13;;;;;;;;;;5030662;28;20072;-83
2023/12/10 13:22:10;;;;;;;5.13;1.45;;;;;;;;;;5034174;28;20064;-82
2023/12/10 13:24:36;;;;;;;2.97;0.80;;;;;;;;;;5002430;28;20034;-82
2023/12/10 13:27:01;;;;;;;2.80;1.13;;;;;;;;;;5036042;28;20045;-84
2023/12/10 13:29:27;;;;;;;5.00;1.15;;;;;;;;;;5026464;28;20098;-82
2023/12/10 13:31:52;;;;;;;5.35;1.60;;;;;;;;;;5018633;28;20683;-83
2023/12/10 13:34:17;;;;;;;3.08;1.23;;;;;;;;;;5028937;28;20048;-83
2023/12/10 13:36:43;;;;;;;9.80;1.70;;;;;;;;;;5025341;28;20049;-83
2023/12/10 13:39:08;;;;;;;3.58;1.52;;;;;;;;;;5009033;28;20021;-83
2023/12/10 13:41:33;;;;;;;5.28;1.08;;;;;;;;;;5032324;28;20029;-84
2023/12/10 13:43:59;;;;;;;15.95;1.65;;;;;;;;;;5031862;28;20026;-84
2023/12/10 13:46:25;;;;;;;4.05;1.27;;;;;;;;;;5021912;28;20077;-84
2023/12/10 13:48:51;;;;;;;10.60;1.33;;;;;;;;;;5029357;28;20030;-84
2023/12/10 13:51:16;;;;;;;6.00;1.58;;;;;;;;;;5021928;28;20030;-82
2023/12/10 13:53:41;;;;;;;5.13;1.42;;;;;;;;;;5017863;28;20010;-82
2023/12/10 13:56:07;;;;;;;5.90;1.38;;;;;;;;;;5013986;28;20084;-82
2023/12/10 13:58:32;;;;;;;7.30;1.15;;;;;;;;;;5019545;28;20155;-82
2023/12/10 14:00:58;;;;;;;3.60;1.48;;;;;;;;;;5025541;28;20400;-83
2023/12/10 14:03:23;;;;;;;5.25;1.33;;;;;;;;;;5017867;28;20049;-82
2023/12/10 14:05:48;;;;;;;2.13;1.10;;;;;;;;;;5019997;28;20091;-83
2023/12/10 14:08:13;;;;;;;6.30;2.13;;;;;;;;;;5016171;28;20053;-82
2023/12/10 14:10:39;;;;;;;3.22;1.42;;;;;;;;;;5015085;28;20042;-83
2023/12/10 14:13:04;;;;;;;14.35;1.88;;;;;;;;;;5021789;28;20589;-83
2023/12/10 14:15:29;;;;;;;3.35;1.20;;;;;;;;;;5025200;28;20057;-83
2023/12/10 14:17:54;;;;;;;4.68;1.08;;;;;;;;;;5019544;28;20045;-82
2023/12/10 14:20:20;;;;;;;6.28;1.85;;;;;;;;;;4995442;28;20060;-80
2023/12/10 14:22:45;;;;;;;3.70;1.33;;;;;;;;;;5020053;28;20065;-84
2023/12/10 14:25:10;;;;;;;2.15;1.02;;;;;;;;;;5018862;28;20044;-83
2023/12/10 14:27:35;;;;;;;8.07;1.27;;;;;;;;;;5001070;28;20040;-80
2023/12/10 14:30:01;;;;;;;2.75;1.27;;;;;;;;;;5020694;28;20044;-82
2023/12/10 14:32:26;;;;;;;4.93;1.08;;;;;;;;;;5016230;28;20046;-83
2023/12/10 14:34:51;;;;;;;2.90;0.82;;;;;;;;;;5020653;28;20133;-81